sensor_id;sensor_type;location;lat;lon;timestamp;P1;durP1;ratioP1;P2;durP2;ratioP2
47784;SDS011;35233;55.686;37.848;2024-03-08T00:02:13;6.50;;;4.90;;
47784;SDS011;35233;55.686;37.848;2024-03-08T00:04:41;6.10;;;4.57;;
47784;SDS011;35233;55.686;37.848;2024-03-08T00:07:07;8.20;;;5.50;;
47784;SDS011;35233;55.686;37.848;2024-03-08T00:09:33;7.13;;;4.65;;
47784;SDS011;35233;55.686;37.848;2024-03-08T00:11:58;6.53;;;5.00;;
47784;SDS011;35233;55.686;37.848;2024-03-08T00:14:24;7.75;;;4.90;;
47784;SDS011;35233;55.686;37.848;2024-03-08T00:16:50;6.05;;;4.57;;
47784;SDS011;35233;55.686;37.848;2024-03-08T00:19:18;6.38;;;5.00;;
47784;SDS011;35233;55.686;37.848;2024-03-08T00:21:43;6.20;;;4.68;;
47784;SDS011;35233;55.686;37.848;2024-03-08T00:24:10;6.07;;;4.30;;
47784;SDS011;35233;55.686;37.848;2024-03-08T00:26:35;5.28;;;4.10;;
47784;SDS011;35233;55.686;37.848;2024-03-08T00:29:01;5.38;;;4.20;;
47784;SDS011;35233;55.686;37.848;2024-03-08T00:31:27;5.55;;;4.18;;
47784;SDS011;35233;55.686;37.848;2024-03-08T00:33:53;5.90;;;4.13;;
47784;SDS011;35233;55.686;37.848;2024-03-08T00:36:18;6.20;;;4.45;;
47784;SDS011;35233;55.686;37.848;2024-03-08T00:38:45;6.18;;;4.05;;
47784;SDS011;35233;55.686;37.848;2024-03-08T00:41:10;7.03;;;4.35;;
47784;SDS011;35233;55.686;37.848;2024-03-08T00:43:36;5.50;;;4.05;;
47784;SDS011;35233;55.686;37.848;2024-03-08T00:46:01;5.90;;;3.95;;
47784;SDS011;35233;55.686;37.848;2024-03-08T00:48:27;6.75;;;4.20;;
47784;SDS011;35233;55.686;37.848;2024-03-08T00:50:53;5.00;;;3.60;;
47784;SDS011;35233;55.686;37.848;2024-03-08T00:53:18;4.80;;;3.65;;
47784;SDS011;35233;55.686;37.848;2024-03-08T00:55:44;5.30;;;3.60;;
47784;SDS011;35233;55.686;37.848;2024-03-08T00:58:11;5.57;;;3.60;;
47784;SDS011;35233;55.686;37.848;2024-03-08T01:00:37;6.20;;;3.67;;
47784;SDS011;35233;55.686;37.848;2024-03-08T01:03:04;5.57;;;3.70;;
47784;SDS011;35233;55.686;37.848;2024-03-08T01:05:30;4.97;;;3.80;;
47784;SDS011;35233;55.686;37.848;2024-03-08T01:07:56;5.68;;;3.67;;
47784;SDS011;35233;55.686;37.848;2024-03-08T01:10:21;4.28;;;3.25;;
47784;SDS011;35233;55.686;37.848;2024-03-08T01:12:48;4.50;;;3.22;;
47784;SDS011;35233;55.686;37.848;2024-03-08T01:15:14;4.53;;;3.10;;
47784;SDS011;35233;55.686;37.848;2024-03-08T01:17:40;5.05;;;3.50;;
47784;SDS011;35233;55.686;37.848;2024-03-08T01:20:06;5.25;;;3.50;;
47784;SDS011;35233;55.686;37.848;2024-03-08T01:22:32;4.30;;;3.10;;
47784;SDS011;35233;55.686;37.848;2024-03-08T01:24:59;4.25;;;3.28;;
47784;SDS011;35233;55.686;37.848;2024-03-08T01:27:24;4.38;;;3.35;;
47784;SDS011;35233;55.686;37.848;2024-03-08T01:29:50;3.95;;;2.88;;
47784;SDS011;35233;55.686;37.848;2024-03-08T01:32:16;4.68;;;3.50;;
47784;SDS011;35233;55.686;37.848;2024-03-08T01:34:41;4.82;;;3.03;;
47784;SDS011;35233;55.686;37.848;2024-03-08T01:37:07;3.90;;;3.00;;
47784;SDS011;35233;55.686;37.848;2024-03-08T01:39:33;4.18;;;3.20;;
47784;SDS011;35233;55.686;37.848;2024-03-08T01:41:59;4.45;;;3.08;;
47784;SDS011;35233;55.686;37.848;2024-03-08T01:44:25;3.72;;;2.95;;
47784;SDS011;35233;55.686;37.848;2024-03-08T01:46:51;3.83;;;2.95;;
47784;SDS011;35233;55.686;37.848;2024-03-08T01:49:18;3.92;;;2.67;;
47784;SDS011;35233;55.686;37.848;2024-03-08T01:51:46;3.85;;;2.78;;
47784;SDS011;35233;55.686;37.848;2024-03-08T01:54:13;4.40;;;3.13;;
47784;SDS011;35233;55.686;37.848;2024-03-08T01:56:41;3.95;;;2.90;;
47784;SDS011;35233;55.686;37.848;2024-03-08T01:59:07;3.88;;;3.05;;
47784;SDS011;35233;55.686;37.848;2024-03-08T02:01:34;4.38;;;2.90;;
47784;SDS011;35233;55.686;37.848;2024-03-08T02:04:00;3.75;;;2.63;;
47784;SDS011;35233;55.686;37.848;2024-03-08T02:06:25;3.83;;;2.60;;
47784;SDS011;35233;55.686;37.848;2024-03-08T02:08:51;3.40;;;2.70;;
47784;SDS011;35233;55.686;37.848;2024-03-08T02:11:17;3.65;;;2.78;;
47784;SDS011;35233;55.686;37.848;2024-03-08T02:13:45;3.33;;;2.50;;
47784;SDS011;35233;55.686;37.848;2024-03-08T02:16:11;3.47;;;2.60;;
47784;SDS011;35233;55.686;37.848;2024-03-08T02:18:37;3.75;;;2.63;;
47784;SDS011;35233;55.686;37.848;2024-03-08T02:21:04;4.07;;;2.85;;
47784;SDS011;35233;55.686;37.848;2024-03-08T02:23:32;3.45;;;2.60;;
47784;SDS011;35233;55.686;37.848;2024-03-08T02:25:58;3.83;;;2.75;;
47784;SDS011;35233;55.686;37.848;2024-03-08T02:28:24;3.80;;;2.92;;
47784;SDS011;35233;55.686;37.848;2024-03-08T02:30:50;5.18;;;3.13;;
47784;SDS011;35233;55.686;37.848;2024-03-08T02:33:17;3.92;;;2.63;;
47784;SDS011;35233;55.686;37.848;2024-03-08T02:35:46;3.05;;;2.55;;
47784;SDS011;35233;55.686;37.848;2024-03-08T02:38:13;3.13;;;2.28;;
47784;SDS011;35233;55.686;37.848;2024-03-08T02:40:47;4.20;;;2.50;;
47784;SDS011;35233;55.686;37.848;2024-03-08T02:43:15;2.75;;;2.30;;
47784;SDS011;35233;55.686;37.848;2024-03-08T02:45:41;2.90;;;2.40;;
47784;SDS011;35233;55.686;37.848;2024-03-08T02:48:07;3.25;;;2.47;;
47784;SDS011;35233;55.686;37.848;2024-03-08T02:50:33;3.63;;;2.70;;
47784;SDS011;35233;55.686;37.848;2024-03-08T02:53:02;3.70;;;2.60;;
47784;SDS011;35233;55.686;37.848;2024-03-08T02:55:28;4.07;;;2.60;;
47784;SDS011;35233;55.686;37.848;2024-03-08T02:57:54;3.45;;;2.50;;
47784;SDS011;35233;55.686;37.848;2024-03-08T03:00:20;3.65;;;2.50;;
47784;SDS011;35233;55.686;37.848;2024-03-08T03:02:51;4.10;;;2.78;;
47784;SDS011;35233;55.686;37.848;2024-03-08T03:05:20;3.50;;;2.33;;
47784;SDS011;35233;55.686;37.848;2024-03-08T03:07:46;3.92;;;2.80;;
47784;SDS011;35233;55.686;37.848;2024-03-08T03:10:12;4.03;;;2.40;;
47784;SDS011;35233;55.686;37.848;2024-03-08T03:12:41;2.65;;;2.40;;
47784;SDS011;35233;55.686;37.848;2024-03-08T03:15:10;3.00;;;2.47;;
47784;SDS011;35233;55.686;37.848;2024-03-08T03:17:36;3.72;;;2.63;;
47784;SDS011;35233;55.686;37.848;2024-03-08T03:20:04;3.72;;;2.92;;
47784;SDS011;35233;55.686;37.848;2024-03-08T03:22:35;3.50;;;2.50;;
47784;SDS011;35233;55.686;37.848;2024-03-08T03:25:02;3.80;;;2.53;;
47784;SDS011;35233;55.686;37.848;2024-03-08T03:27:29;3.05;;;2.38;;
47784;SDS011;35233;55.686;37.848;2024-03-08T03:29:55;3.65;;;2.70;;
47784;SDS011;35233;55.686;37.848;2024-03-08T03:32:23;3.47;;;2.60;;
47784;SDS011;35233;55.686;37.848;2024-03-08T03:34:48;3.50;;;2.47;;
47784;SDS011;35233;55.686;37.848;2024-03-08T03:37:18;2.67;;;2.35;;
47784;SDS011;35233;55.686;37.848;2024-03-08T03:39:44;3.80;;;2.25;;
47784;SDS011;35233;55.686;37.848;2024-03-08T03:42:18;3.20;;;2.47;;
47784;SDS011;35233;55.686;37.848;2024-03-08T03:44:47;3.25;;;2.47;;
47784;SDS011;35233;55.686;37.848;2024-03-08T03:47:14;3.80;;;3.00;;
47784;SDS011;35233;55.686;37.848;2024-03-08T03:49:43;3.67;;;2.65;;
47784;SDS011;35233;55.686;37.848;2024-03-08T03:52:10;4.43;;;2.67;;
47784;SDS011;35233;55.686;37.848;2024-03-08T03:54:35;4.35;;;3.08;;
47784;SDS011;35233;55.686;37.848;2024-03-08T03:57:01;3.13;;;2.50;;
47784;SDS011;35233;55.686;37.848;2024-03-08T03:59:28;4.10;;;2.67;;
47784;SDS011;35233;55.686;37.848;2024-03-08T04:01:54;3.72;;;2.60;;
47784;SDS011;35233;55.686;37.848;2024-03-08T04:04:20;3.90;;;2.67;;
47784;SDS011;35233;55.686;37.848;2024-03-08T04:06:46;5.10;;;2.70;;
47784;SDS011;35233;55.686;37.848;2024-03-08T04:09:11;3.22;;;2.45;;
47784;SDS011;35233;55.686;37.848;2024-03-08T04:11:37;3.13;;;2.70;;
47784;SDS011;35233;55.686;37.848;2024-03-08T04:14:03;3.92;;;2.70;;
47784;SDS011;35233;55.686;37.848;2024-03-08T04:16:30;4.32;;;2.88;;
47784;SDS011;35233;55.686;37.848;2024-03-08T04:18:56;3.55;;;2.80;;
47784;SDS011;35233;55.686;37.848;2024-03-08T04:21:23;3.60;;;2.85;;
47784;SDS011;35233;55.686;37.848;2024-03-08T04:23:48;3.95;;;3.00;;
47784;SDS011;35233;55.686;37.848;2024-03-08T04:26:14;3.30;;;2.60;;
47784;SDS011;35233;55.686;37.848;2024-03-08T04:28:39;3.60;;;2.85;;
47784;SDS011;35233;55.686;37.848;2024-03-08T04:31:05;5.07;;;3.22;;
47784;SDS011;35233;55.686;37.848;2024-03-08T04:33:31;3.58;;;2.65;;
47784;SDS011;35233;55.686;37.848;2024-03-08T04:35:57;3.83;;;2.80;;
47784;SDS011;35233;55.686;37.848;2024-03-08T04:38:23;3.60;;;2.70;;
47784;SDS011;35233;55.686;37.848;2024-03-08T04:40:50;4.15;;;2.80;;
47784;SDS011;35233;55.686;37.848;2024-03-08T04:43:15;5.00;;;3.42;;
47784;SDS011;35233;55.686;37.848;2024-03-08T04:45:43;4.88;;;3.45;;
47784;SDS011;35233;55.686;37.848;2024-03-08T04:48:09;6.07;;;4.53;;
47784;SDS011;35233;55.686;37.848;2024-03-08T04:50:36;6.63;;;4.55;;
47784;SDS011;35233;55.686;37.848;2024-03-08T04:53:03;7.13;;;4.85;;
47784;SDS011;35233;55.686;37.848;2024-03-08T04:55:33;7.68;;;5.63;;
47784;SDS011;35233;55.686;37.848;2024-03-08T04:57:59;6.93;;;5.40;;
47784;SDS011;35233;55.686;37.848;2024-03-08T05:00:25;6.95;;;5.22;;
47784;SDS011;35233;55.686;37.848;2024-03-08T05:02:50;6.90;;;5.40;;
47784;SDS011;35233;55.686;37.848;2024-03-08T05:05:18;7.78;;;5.40;;
47784;SDS011;35233;55.686;37.848;2024-03-08T05:07:44;7.53;;;5.40;;
47784;SDS011;35233;55.686;37.848;2024-03-08T05:10:10;7.15;;;5.25;;
47784;SDS011;35233;55.686;37.848;2024-03-08T05:12:37;6.65;;;4.97;;
47784;SDS011;35233;55.686;37.848;2024-03-08T05:15:05;7.00;;;5.18;;
47784;SDS011;35233;55.686;37.848;2024-03-08T05:17:32;7.30;;;4.90;;
47784;SDS011;35233;55.686;37.848;2024-03-08T05:19:57;7.65;;;4.93;;
47784;SDS011;35233;55.686;37.848;2024-03-08T05:22:23;7.75;;;5.47;;
47784;SDS011;35233;55.686;37.848;2024-03-08T05:24:49;9.20;;;5.75;;
47784;SDS011;35233;55.686;37.848;2024-03-08T05:27:15;8.70;;;6.00;;
47784;SDS011;35233;55.686;37.848;2024-03-08T05:29:41;10.70;;;6.10;;
47784;SDS011;35233;55.686;37.848;2024-03-08T05:32:07;10.20;;;6.80;;
47784;SDS011;35233;55.686;37.848;2024-03-08T05:34:32;8.50;;;6.38;;
47784;SDS011;35233;55.686;37.848;2024-03-08T05:36:58;9.25;;;6.40;;
47784;SDS011;35233;55.686;37.848;2024-03-08T05:39:25;9.65;;;6.50;;
47784;SDS011;35233;55.686;37.848;2024-03-08T05:41:50;10.93;;;7.25;;
47784;SDS011;35233;55.686;37.848;2024-03-08T05:44:16;10.70;;;6.63;;
47784;SDS011;35233;55.686;37.848;2024-03-08T05:46:42;9.68;;;6.97;;
47784;SDS011;35233;55.686;37.848;2024-03-08T05:49:08;9.88;;;6.95;;
47784;SDS011;35233;55.686;37.848;2024-03-08T05:51:35;10.27;;;7.18;;
47784;SDS011;35233;55.686;37.848;2024-03-08T05:54:05;9.15;;;6.93;;
47784;SDS011;35233;55.686;37.848;2024-03-08T05:56:34;13.15;;;8.55;;
47784;SDS011;35233;55.686;37.848;2024-03-08T05:59:00;14.45;;;9.90;;
47784;SDS011;35233;55.686;37.848;2024-03-08T06:01:26;15.23;;;10.55;;
47784;SDS011;35233;55.686;37.848;2024-03-08T06:03:53;16.85;;;12.27;;
47784;SDS011;35233;55.686;37.848;2024-03-08T06:06:21;15.95;;;12.25;;
47784;SDS011;35233;55.686;37.848;2024-03-08T06:08:47;17.35;;;12.10;;
47784;SDS011;35233;55.686;37.848;2024-03-08T06:11:19;18.27;;;13.48;;
47784;SDS011;35233;55.686;37.848;2024-03-08T06:13:46;17.52;;;12.95;;
47784;SDS011;35233;55.686;37.848;2024-03-08T06:16:12;21.23;;;15.43;;
47784;SDS011;35233;55.686;37.848;2024-03-08T06:18:40;21.98;;;17.48;;
47784;SDS011;35233;55.686;37.848;2024-03-08T06:21:06;24.65;;;18.77;;
47784;SDS011;35233;55.686;37.848;2024-03-08T06:23:32;26.40;;;20.60;;
47784;SDS011;35233;55.686;37.848;2024-03-08T06:25:58;25.17;;;20.73;;
47784;SDS011;35233;55.686;37.848;2024-03-08T06:28:24;26.42;;;20.10;;
47784;SDS011;35233;55.686;37.848;2024-03-08T06:30:50;25.88;;;20.48;;
47784;SDS011;35233;55.686;37.848;2024-03-08T06:33:17;25.05;;;20.23;;
47784;SDS011;35233;55.686;37.848;2024-03-08T06:35:43;26.15;;;19.58;;
47784;SDS011;35233;55.686;37.848;2024-03-08T06:38:09;22.67;;;17.80;;
47784;SDS011;35233;55.686;37.848;2024-03-08T06:40:34;24.17;;;17.75;;
47784;SDS011;35233;55.686;37.848;2024-03-08T06:43:03;22.58;;;17.25;;
47784;SDS011;35233;55.686;37.848;2024-03-08T06:45:33;22.88;;;18.02;;
47784;SDS011;35233;55.686;37.848;2024-03-08T06:48:01;23.70;;;18.00;;
47784;SDS011;35233;55.686;37.848;2024-03-08T06:50:37;22.10;;;17.95;;
47784;SDS011;35233;55.686;37.848;2024-03-08T06:53:03;23.35;;;17.30;;
47784;SDS011;35233;55.686;37.848;2024-03-08T06:55:29;22.25;;;17.67;;
47784;SDS011;35233;55.686;37.848;2024-03-08T06:58:04;21.88;;;17.30;;
47784;SDS011;35233;55.686;37.848;2024-03-08T07:00:32;19.58;;;15.90;;
47784;SDS011;35233;55.686;37.848;2024-03-08T07:03:06;21.42;;;17.15;;
47784;SDS011;35233;55.686;37.848;2024-03-08T07:05:59;20.60;;;17.20;;
47784;SDS011;35233;55.686;37.848;2024-03-08T07:08:27;21.80;;;17.25;;
47784;SDS011;35233;55.686;37.848;2024-03-08T07:10:53;22.92;;;18.48;;
47784;SDS011;35233;55.686;37.848;2024-03-08T07:13:19;21.40;;;18.13;;
47784;SDS011;35233;55.686;37.848;2024-03-08T07:15:45;22.65;;;16.77;;
47784;SDS011;35233;55.686;37.848;2024-03-08T07:18:11;18.95;;;16.20;;
47784;SDS011;35233;55.686;37.848;2024-03-08T07:20:40;21.13;;;15.75;;
47784;SDS011;35233;55.686;37.848;2024-03-08T07:23:06;18.27;;;15.30;;
47784;SDS011;35233;55.686;37.848;2024-03-08T07:25:33;18.75;;;14.90;;
47784;SDS011;35233;55.686;37.848;2024-03-08T07:28:00;18.02;;;14.85;;
47784;SDS011;35233;55.686;37.848;2024-03-08T07:30:26;17.63;;;14.25;;
47784;SDS011;35233;55.686;37.848;2024-03-08T07:33:10;18.48;;;15.63;;
47784;SDS011;35233;55.686;37.848;2024-03-08T07:35:37;18.85;;;15.20;;
47784;SDS011;35233;55.686;37.848;2024-03-08T07:38:04;16.63;;;14.32;;
47784;SDS011;35233;55.686;37.848;2024-03-08T07:40:30;17.17;;;14.02;;
47784;SDS011;35233;55.686;37.848;2024-03-08T07:42:57;17.92;;;13.70;;
47784;SDS011;35233;55.686;37.848;2024-03-08T07:45:23;17.05;;;13.35;;
47784;SDS011;35233;55.686;37.848;2024-03-08T07:47:49;15.95;;;12.70;;
47784;SDS011;35233;55.686;37.848;2024-03-08T07:50:16;17.35;;;13.30;;
47784;SDS011;35233;55.686;37.848;2024-03-08T07:52:42;18.00;;;13.30;;
47784;SDS011;35233;55.686;37.848;2024-03-08T07:55:08;17.17;;;13.35;;
47784;SDS011;35233;55.686;37.848;2024-03-08T07:57:35;14.35;;;11.93;;
47784;SDS011;35233;55.686;37.848;2024-03-08T08:00:03;15.95;;;11.98;;
47784;SDS011;35233;55.686;37.848;2024-03-08T08:02:33;15.05;;;12.15;;
47784;SDS011;35233;55.686;37.848;2024-03-08T08:05:00;14.98;;;12.15;;
47784;SDS011;35233;55.686;37.848;2024-03-08T08:07:26;16.58;;;13.60;;
47784;SDS011;35233;55.686;37.848;2024-03-08T08:09:52;15.73;;;12.68;;
47784;SDS011;35233;55.686;37.848;2024-03-08T08:12:18;15.50;;;12.80;;
47784;SDS011;35233;55.686;37.848;2024-03-08T08:14:44;16.92;;;12.43;;
47784;SDS011;35233;55.686;37.848;2024-03-08T08:17:10;15.52;;;12.25;;
47784;SDS011;35233;55.686;37.848;2024-03-08T08:19:36;14.82;;;11.75;;
47784;SDS011;35233;55.686;37.848;2024-03-08T08:22:01;14.82;;;12.25;;
47784;SDS011;35233;55.686;37.848;2024-03-08T08:24:27;15.10;;;11.98;;
47784;SDS011;35233;55.686;37.848;2024-03-08T08:26:53;14.07;;;11.02;;
47784;SDS011;35233;55.686;37.848;2024-03-08T08:29:21;13.13;;;11.25;;
47784;SDS011;35233;55.686;37.848;2024-03-08T08:31:48;15.32;;;11.55;;
47784;SDS011;35233;55.686;37.848;2024-03-08T08:34:16;12.18;;;10.15;;
47784;SDS011;35233;55.686;37.848;2024-03-08T08:36:44;13.93;;;10.52;;
47784;SDS011;35233;55.686;37.848;2024-03-08T08:39:10;12.30;;;10.02;;
47784;SDS011;35233;55.686;37.848;2024-03-08T08:41:38;13.63;;;10.52;;
47784;SDS011;35233;55.686;37.848;2024-03-08T08:44:06;14.43;;;10.35;;
47784;SDS011;35233;55.686;37.848;2024-03-08T08:46:35;13.43;;;9.80;;
47784;SDS011;35233;55.686;37.848;2024-03-08T08:49:05;11.50;;;9.95;;
47784;SDS011;35233;55.686;37.848;2024-03-08T08:51:33;13.35;;;10.80;;
47784;SDS011;35233;55.686;37.848;2024-03-08T08:53:59;11.88;;;8.82;;
47784;SDS011;35233;55.686;37.848;2024-03-08T08:56:24;11.30;;;9.10;;
47784;SDS011;35233;55.686;37.848;2024-03-08T08:58:51;11.60;;;9.20;;
47784;SDS011;35233;55.686;37.848;2024-03-08T09:01:18;10.90;;;8.63;;
47784;SDS011;35233;55.686;37.848;2024-03-08T09:03:47;10.60;;;8.82;;
47784;SDS011;35233;55.686;37.848;2024-03-08T09:06:13;11.57;;;9.55;;
47784;SDS011;35233;55.686;37.848;2024-03-08T09:08:39;12.70;;;9.23;;
47784;SDS011;35233;55.686;37.848;2024-03-08T09:11:05;11.85;;;9.02;;
47784;SDS011;35233;55.686;37.848;2024-03-08T09:13:31;11.48;;;8.85;;
47784;SDS011;35233;55.686;37.848;2024-03-08T09:15:59;10.98;;;9.35;;
47784;SDS011;35233;55.686;37.848;2024-03-08T09:18:24;10.95;;;8.68;;
47784;SDS011;35233;55.686;37.848;2024-03-08T09:20:50;10.90;;;8.65;;
47784;SDS011;35233;55.686;37.848;2024-03-08T09:23:16;11.50;;;9.50;;
47784;SDS011;35233;55.686;37.848;2024-03-08T09:25:45;12.00;;;8.98;;
47784;SDS011;35233;55.686;37.848;2024-03-08T09:28:14;12.80;;;9.18;;
47784;SDS011;35233;55.686;37.848;2024-03-08T09:30:42;11.63;;;9.27;;
47784;SDS011;35233;55.686;37.848;2024-03-08T09:33:09;11.68;;;9.23;;
47784;SDS011;35233;55.686;37.848;2024-03-08T09:35:34;10.73;;;8.75;;
47784;SDS011;35233;55.686;37.848;2024-03-08T09:38:00;11.77;;;9.38;;
47784;SDS011;35233;55.686;37.848;2024-03-08T09:40:26;13.75;;;9.20;;
47784;SDS011;35233;55.686;37.848;2024-03-08T09:42:52;12.70;;;9.68;;
47784;SDS011;35233;55.686;37.848;2024-03-08T09:45:19;11.23;;;8.93;;
47784;SDS011;35233;55.686;37.848;2024-03-08T09:47:48;11.75;;;9.68;;
47784;SDS011;35233;55.686;37.848;2024-03-08T09:50:14;11.25;;;9.52;;
47784;SDS011;35233;55.686;37.848;2024-03-08T09:52:43;13.48;;;9.50;;
47784;SDS011;35233;55.686;37.848;2024-03-08T09:55:11;12.63;;;10.25;;
47784;SDS011;35233;55.686;37.848;2024-03-08T09:57:38;17.10;;;10.55;;
47784;SDS011;35233;55.686;37.848;2024-03-08T10:00:05;15.00;;;10.55;;
47784;SDS011;35233;55.686;37.848;2024-03-08T10:02:46;18.58;;;11.23;;
47784;SDS011;35233;55.686;37.848;2024-03-08T10:05:13;13.55;;;10.13;;
47784;SDS011;35233;55.686;37.848;2024-03-08T10:07:39;11.98;;;9.40;;
47784;SDS011;35233;55.686;37.848;2024-03-08T10:10:05;12.50;;;9.15;;
47784;SDS011;35233;55.686;37.848;2024-03-08T10:12:34;13.00;;;10.05;;
47784;SDS011;35233;55.686;37.848;2024-03-08T10:15:00;15.32;;;11.73;;
47784;SDS011;35233;55.686;37.848;2024-03-08T10:17:27;15.93;;;11.50;;
47784;SDS011;35233;55.686;37.848;2024-03-08T10:20:15;16.52;;;11.68;;
47784;SDS011;35233;55.686;37.848;2024-03-08T10:22:45;15.30;;;11.75;;
47784;SDS011;35233;55.686;37.848;2024-03-08T10:25:11;17.17;;;12.75;;
47784;SDS011;35233;55.686;37.848;2024-03-08T10:27:39;18.52;;;13.10;;
47784;SDS011;35233;55.686;37.848;2024-03-08T10:30:12;15.88;;;12.85;;
47784;SDS011;35233;55.686;37.848;2024-03-08T10:32:40;18.23;;;13.20;;
47784;SDS011;35233;55.686;37.848;2024-03-08T10:35:09;18.42;;;13.20;;
47784;SDS011;35233;55.686;37.848;2024-03-08T10:37:44;16.83;;;13.27;;
47784;SDS011;35233;55.686;37.848;2024-03-08T10:40:13;15.52;;;12.13;;
47784;SDS011;35233;55.686;37.848;2024-03-08T10:43:03;15.07;;;12.05;;
47784;SDS011;35233;55.686;37.848;2024-03-08T10:50:50;16.20;;;11.35;;
47784;SDS011;35233;55.686;37.848;2024-03-08T10:53:17;14.98;;;11.27;;
47784;SDS011;35233;55.686;37.848;2024-03-08T10:55:46;14.43;;;10.90;;
47784;SDS011;35233;55.686;37.848;2024-03-08T10:58:13;13.98;;;11.43;;
47784;SDS011;35233;55.686;37.848;2024-03-08T11:00:40;14.98;;;10.45;;
47784;SDS011;35233;55.686;37.848;2024-03-08T11:03:07;13.77;;;11.13;;
47784;SDS011;35233;55.686;37.848;2024-03-08T11:05:54;15.32;;;11.48;;
47784;SDS011;35233;55.686;37.848;2024-03-08T11:08:19;15.40;;;10.98;;
47784;SDS011;35233;55.686;37.848;2024-03-08T11:10:49;15.82;;;11.07;;
47784;SDS011;35233;55.686;37.848;2024-03-08T11:18:50;15.35;;;10.63;;
47784;SDS011;35233;55.686;37.848;2024-03-08T11:21:19;15.18;;;11.15;;
47784;SDS011;35233;55.686;37.848;2024-03-08T11:24:06;15.68;;;11.07;;
47784;SDS011;35233;55.686;37.848;2024-03-08T11:26:34;13.55;;;10.60;;
47784;SDS011;35233;55.686;37.848;2024-03-08T11:34:47;14.63;;;10.90;;
47784;SDS011;35233;55.686;37.848;2024-03-08T11:37:16;14.13;;;11.10;;
47784;SDS011;35233;55.686;37.848;2024-03-08T11:42:17;13.10;;;9.85;;
47784;SDS011;35233;55.686;37.848;2024-03-08T11:44:47;14.45;;;10.10;;
47784;SDS011;35233;55.686;37.848;2024-03-08T11:47:13;16.45;;;10.68;;
47784;SDS011;35233;55.686;37.848;2024-03-08T11:49:40;13.10;;;9.95;;
47784;SDS011;35233;55.686;37.848;2024-03-08T11:52:15;12.00;;;9.50;;
47784;SDS011;35233;55.686;37.848;2024-03-08T11:54:43;13.57;;;9.57;;
47784;SDS011;35233;55.686;37.848;2024-03-08T11:57:19;12.18;;;9.10;;
47784;SDS011;35233;55.686;37.848;2024-03-08T11:59:54;16.17;;;9.60;;
47784;SDS011;35233;55.686;37.848;2024-03-08T12:02:24;11.57;;;8.52;;
47784;SDS011;35233;55.686;37.848;2024-03-08T12:04:58;11.98;;;8.90;;
47784;SDS011;35233;55.686;37.848;2024-03-08T12:07:25;13.02;;;9.07;;
47784;SDS011;35233;55.686;37.848;2024-03-08T12:12:47;13.90;;;8.52;;
47784;SDS011;35233;55.686;37.848;2024-03-08T12:15:18;11.63;;;7.43;;
47784;SDS011;35233;55.686;37.848;2024-03-08T12:17:49;11.95;;;7.32;;
47784;SDS011;35233;55.686;37.848;2024-03-08T12:20:17;9.70;;;7.13;;
47784;SDS011;35233;55.686;37.848;2024-03-08T12:23:02;9.65;;;7.55;;
47784;SDS011;35233;55.686;37.848;2024-03-08T12:25:31;10.02;;;7.55;;
47784;SDS011;35233;55.686;37.848;2024-03-08T12:28:09;10.85;;;7.45;;
47784;SDS011;35233;55.686;37.848;2024-03-08T12:30:50;8.45;;;7.05;;
47784;SDS011;35233;55.686;37.848;2024-03-08T12:33:22;9.02;;;7.07;;
47784;SDS011;35233;55.686;37.848;2024-03-08T12:35:51;8.77;;;6.97;;
47784;SDS011;35233;55.686;37.848;2024-03-08T12:38:24;9.35;;;6.93;;
47784;SDS011;35233;55.686;37.848;2024-03-08T12:40:55;10.30;;;7.10;;
47784;SDS011;35233;55.686;37.848;2024-03-08T12:43:23;10.00;;;7.03;;
47784;SDS011;35233;55.686;37.848;2024-03-08T12:45:49;9.95;;;7.07;;
47784;SDS011;35233;55.686;37.848;2024-03-08T12:48:15;9.93;;;7.22;;
47784;SDS011;35233;55.686;37.848;2024-03-08T12:50:41;10.50;;;6.60;;
47784;SDS011;35233;55.686;37.848;2024-03-08T12:53:12;9.55;;;6.80;;
47784;SDS011;35233;55.686;37.848;2024-03-08T12:55:38;8.65;;;7.10;;
47784;SDS011;35233;55.686;37.848;2024-03-08T12:58:05;10.48;;;7.60;;
47784;SDS011;35233;55.686;37.848;2024-03-08T13:00:33;8.52;;;6.72;;
47784;SDS011;35233;55.686;37.848;2024-03-08T13:03:01;10.30;;;7.20;;
47784;SDS011;35233;55.686;37.848;2024-03-08T13:05:27;10.75;;;7.25;;
47784;SDS011;35233;55.686;37.848;2024-03-08T13:07:54;9.88;;;7.60;;
47784;SDS011;35233;55.686;37.848;2024-03-08T13:10:22;11.88;;;8.35;;
47784;SDS011;35233;55.686;37.848;2024-03-08T13:12:47;11.40;;;7.88;;
47784;SDS011;35233;55.686;37.848;2024-03-08T13:15:13;12.23;;;9.30;;
47784;SDS011;35233;55.686;37.848;2024-03-08T13:17:49;11.80;;;9.20;;
47784;SDS011;35233;55.686;37.848;2024-03-08T13:20:16;12.55;;;10.23;;
47784;SDS011;35233;55.686;37.848;2024-03-08T13:22:45;12.98;;;10.15;;
47784;SDS011;35233;55.686;37.848;2024-03-08T13:25:11;17.05;;;11.05;;
47784;SDS011;35233;55.686;37.848;2024-03-08T13:27:40;13.73;;;11.27;;
47784;SDS011;35233;55.686;37.848;2024-03-08T13:30:08;15.63;;;12.40;;
47784;SDS011;35233;55.686;37.848;2024-03-08T13:32:38;16.52;;;12.70;;
47784;SDS011;35233;55.686;37.848;2024-03-08T13:35:12;15.30;;;12.45;;
47784;SDS011;35233;55.686;37.848;2024-03-08T13:37:39;17.77;;;14.32;;
47784;SDS011;35233;55.686;37.848;2024-03-08T13:40:08;16.27;;;13.18;;
47784;SDS011;35233;55.686;37.848;2024-03-08T13:42:39;17.85;;;14.02;;
47784;SDS011;35233;55.686;37.848;2024-03-08T13:45:08;17.15;;;14.18;;
47784;SDS011;35233;55.686;37.848;2024-03-08T13:47:38;18.08;;;14.48;;
47784;SDS011;35233;55.686;37.848;2024-03-08T13:50:08;16.15;;;13.70;;
47784;SDS011;35233;55.686;37.848;2024-03-08T13:52:38;17.95;;;13.65;;
47784;SDS011;35233;55.686;37.848;2024-03-08T13:55:05;16.17;;;12.52;;
47784;SDS011;35233;55.686;37.848;2024-03-08T13:57:32;16.77;;;12.43;;
47784;SDS011;35233;55.686;37.848;2024-03-08T13:59:58;14.88;;;11.90;;
47784;SDS011;35233;55.686;37.848;2024-03-08T14:05:08;15.05;;;12.25;;
47784;SDS011;35233;55.686;37.848;2024-03-08T14:07:38;16.23;;;12.80;;
47784;SDS011;35233;55.686;37.848;2024-03-08T14:10:04;14.05;;;11.95;;
47784;SDS011;35233;55.686;37.848;2024-03-08T14:12:32;15.75;;;12.95;;
47784;SDS011;35233;55.686;37.848;2024-03-08T14:15:01;18.65;;;13.90;;
47784;SDS011;35233;55.686;37.848;2024-03-08T14:17:26;19.88;;;14.52;;
47784;SDS011;35233;55.686;37.848;2024-03-08T14:20:02;19.38;;;14.65;;
47784;SDS011;35233;55.686;37.848;2024-03-08T14:22:29;18.52;;;14.45;;
47784;SDS011;35233;55.686;37.848;2024-03-08T14:24:56;20.17;;;15.02;;
47784;SDS011;35233;55.686;37.848;2024-03-08T14:27:22;16.90;;;13.68;;
47784;SDS011;35233;55.686;37.848;2024-03-08T14:29:48;19.38;;;13.93;;
47784;SDS011;35233;55.686;37.848;2024-03-08T14:32:14;21.75;;;14.98;;
47784;SDS011;35233;55.686;37.848;2024-03-08T14:34:40;21.55;;;16.08;;
47784;SDS011;35233;55.686;37.848;2024-03-08T14:37:06;21.35;;;15.38;;
47784;SDS011;35233;55.686;37.848;2024-03-08T14:39:36;21.48;;;17.42;;
47784;SDS011;35233;55.686;37.848;2024-03-08T14:42:02;27.52;;;23.25;;
47784;SDS011;35233;55.686;37.848;2024-03-08T14:44:28;57.20;;;50.35;;
47784;SDS011;35233;55.686;37.848;2024-03-08T14:46:58;88.57;;;77.95;;
47784;SDS011;35233;55.686;37.848;2024-03-08T14:49:24;99.75;;;88.93;;